createdAt,value
2023-04-10T00:01:52.872Z,35.40
2023-04-10T00:04:19.431Z,35.13
2023-04-10T00:06:48.934Z,35.97
2023-04-10T00:09:15.460Z,34.67
2023-04-10T00:11:41.899Z,34.63
2023-04-10T00:14:08.296Z,35.90
2023-04-10T00:16:34.700Z,37.10
2023-04-10T00:19:01.102Z,33.20
2023-04-10T00:21:27.618Z,37.75
2023-04-10T00:23:54.195Z,35.00
2023-04-10T00:26:21.113Z,32.75
2023-04-10T00:28:47.573Z,35.92
2023-04-10T00:31:14.000Z,35.33
2023-04-10T00:33:40.423Z,33.78
2023-04-10T00:36:07.095Z,35.83
2023-04-10T00:38:33.608Z,35.40
2023-04-10T00:41:00.059Z,32.42
2023-04-10T00:43:27.294Z,35.85
2023-04-10T00:45:53.713Z,32.40
2023-04-10T00:48:20.359Z,31.95
2023-04-10T00:50:47.146Z,31.38
2023-04-10T00:53:13.547Z,33.53
2023-04-10T00:55:39.973Z,32.90
2023-04-10T00:58:06.933Z,31.40
2023-04-10T01:00:33.647Z,30.95
2023-04-10T01:03:01.632Z,30.23
2023-04-10T01:05:34.193Z,30.77
2023-04-10T01:08:23.262Z,33.92
2023-04-10T01:11:00.306Z,32.35
2023-04-10T01:13:44.017Z,32.65
2023-04-10T01:16:24.833Z,32.72
2023-04-10T01:18:58.067Z,31.35
2023-04-10T01:21:24.854Z,32.55
2023-04-10T01:24:14.422Z,30.83
2023-04-10T01:27:04.144Z,31.00
2023-04-10T01:29:34.118Z,29.00
2023-04-10T01:32:14.883Z,29.92
2023-04-10T01:34:45.407Z,31.13
2023-04-10T01:37:34.502Z,30.42
2023-04-10T01:40:08.729Z,30.67
2023-04-10T01:42:43.247Z,33.05
2023-04-10T01:45:17.461Z,27.60
2023-04-10T01:47:44.321Z,32.00
2023-04-10T01:50:12.109Z,30.48
2023-04-10T01:52:40.194Z,27.38
2023-04-10T01:55:08.908Z,29.10
2023-04-10T01:57:36.342Z,27.98
2023-04-10T02:00:04.452Z,30.88
2023-04-10T02:02:32.155Z,29.92
2023-04-10T02:04:58.846Z,27.40
2023-04-10T02:07:46.186Z,27.60
2023-04-10T02:10:24.642Z,28.90
2023-04-10T02:12:55.539Z,29.60
2023-04-10T02:15:24.214Z,32.17
2023-04-10T02:17:52.431Z,28.52
2023-04-10T02:20:19.092Z,32.90
2023-04-10T02:22:46.501Z,32.85
2023-04-10T02:25:13.166Z,32.97
2023-04-10T02:27:39.770Z,30.92
2023-04-10T02:30:06.969Z,28.67
2023-04-10T02:32:33.623Z,27.38
2023-04-10T02:35:01.702Z,29.80
2023-04-10T02:37:28.054Z,28.77
2023-04-10T02:39:57.368Z,27.50
2023-04-10T02:42:23.820Z,29.88
2023-04-10T02:44:50.351Z,36.15
2023-04-10T02:47:17.188Z,29.60
2023-04-10T02:49:44.120Z,28.40
2023-04-10T02:52:10.473Z,27.63
2023-04-10T02:54:37.480Z,27.17
2023-04-10T02:57:04.710Z,28.45
2023-04-10T02:59:31.592Z,24.15
2023-04-10T03:01:58.031Z,24.83
2023-04-10T03:04:24.499Z,24.42
2023-04-10T03:06:51.000Z,27.02
2023-04-10T03:09:17.627Z,29.52
2023-04-10T03:11:43.999Z,24.80
2023-04-10T03:14:10.352Z,27.00
2023-04-10T03:16:36.921Z,26.08
2023-04-10T03:19:03.633Z,25.08
2023-04-10T03:21:30.126Z,24.90
2023-04-10T03:23:56.871Z,24.27
2023-04-10T03:26:24.018Z,24.52
2023-04-10T03:28:50.779Z,25.13
2023-04-10T03:31:17.251Z,25.90
2023-04-10T03:33:43.746Z,23.58
2023-04-10T03:36:11.354Z,26.92
2023-04-10T03:38:37.770Z,24.67
2023-04-10T03:41:04.299Z,23.40
2023-04-10T03:43:33.258Z,25.08
2023-04-10T03:45:59.786Z,24.00
2023-04-10T03:48:28.443Z,23.73
2023-04-10T03:50:55.406Z,25.65
2023-04-10T03:53:21.841Z,25.35
2023-04-10T03:55:48.226Z,26.45
2023-04-10T03:58:14.565Z,25.17
2023-04-10T04:00:41.165Z,23.75
2023-04-10T04:03:07.993Z,27.98
2023-04-10T04:05:34.869Z,27.17
2023-04-10T04:08:01.343Z,27.38
2023-04-10T04:10:27.878Z,27.25
2023-04-10T04:12:54.366Z,26.38
2023-04-10T04:15:23.970Z,25.73
2023-04-10T04:17:51.081Z,27.95
2023-04-10T04:20:17.629Z,25.80
2023-04-10T04:22:44.042Z,25.90
2023-04-10T04:25:11.420Z,25.40
2023-04-10T04:27:38.336Z,28.65
2023-04-10T04:30:06.066Z,25.13
2023-04-10T04:32:32.616Z,23.63
2023-04-10T04:34:58.994Z,25.67
2023-04-10T04:37:25.435Z,23.35
2023-04-10T04:39:51.787Z,24.55
2023-04-10T04:42:18.508Z,22.45
2023-04-10T04:44:44.933Z,26.20
2023-04-10T04:47:11.562Z,23.02
2023-04-10T04:49:38.301Z,25.08
2023-04-10T04:52:04.795Z,25.50
2023-04-10T04:54:31.250Z,23.92
2023-04-10T04:56:57.788Z,24.00
2023-04-10T04:59:24.263Z,25.67
2023-04-10T05:01:50.939Z,25.85
2023-04-10T05:04:17.728Z,25.70
2023-04-10T05:06:44.569Z,25.08
2023-04-10T05:09:11.092Z,25.85
2023-04-10T05:11:37.732Z,25.58
2023-04-10T05:14:04.174Z,26.02
2023-04-10T05:16:30.573Z,26.88
2023-04-10T05:18:57.198Z,25.60
2023-04-10T05:21:23.965Z,27.65
2023-04-10T05:23:50.484Z,27.55
2023-04-10T05:26:16.867Z,29.40
2023-04-10T05:28:43.314Z,30.33
2023-04-10T05:31:09.934Z,28.13
2023-04-10T05:33:36.503Z,31.00
2023-04-10T05:36:02.949Z,27.05
2023-04-10T05:38:29.404Z,29.55
2023-04-10T05:40:55.991Z,27.63
2023-04-10T05:43:22.443Z,27.83
2023-04-10T05:45:48.910Z,28.48
2023-04-10T05:48:15.360Z,29.50
2023-04-10T05:50:41.774Z,29.90
2023-04-10T05:53:14.735Z,28.83
2023-04-10T05:55:41.117Z,30.52
2023-04-10T05:58:07.559Z,31.30
2023-04-10T06:00:34.199Z,30.05
2023-04-10T06:03:00.825Z,30.20
2023-04-10T06:05:27.653Z,31.40
2023-04-10T06:07:55.248Z,31.27
2023-04-10T06:10:23.416Z,31.50
2023-04-10T06:12:49.775Z,31.33
2023-04-10T06:15:16.169Z,31.83
2023-04-10T06:17:43.837Z,34.40
2023-04-10T06:20:10.852Z,35.28
2023-04-10T06:22:37.324Z,30.27
2023-04-10T06:25:05.465Z,32.22
2023-04-10T06:27:32.152Z,29.85
2023-04-10T06:29:58.809Z,32.78
2023-04-10T06:32:25.510Z,29.02
2023-04-10T06:34:51.871Z,30.40
2023-04-10T06:37:18.526Z,30.02
2023-04-10T06:39:44.894Z,27.48
2023-04-10T06:42:11.568Z,33.20
2023-04-10T06:44:37.943Z,30.13
2023-04-10T06:47:06.787Z,29.63
2023-04-10T06:49:33.234Z,26.98
2023-04-10T06:51:59.626Z,29.27
2023-04-10T06:54:26.131Z,29.35
2023-04-10T06:56:52.840Z,26.15
2023-04-10T06:59:19.369Z,27.98
2023-04-10T07:01:45.780Z,27.38
2023-04-10T07:04:12.229Z,28.92
2023-04-10T07:06:38.699Z,45.25
2023-04-10T07:09:05.074Z,58.03
2023-04-10T07:11:31.803Z,45.33
2023-04-10T07:13:58.820Z,32.38
2023-04-10T07:16:25.899Z,25.45
2023-04-10T07:18:52.640Z,24.77
2023-04-10T07:21:19.284Z,26.73
2023-04-10T07:23:45.661Z,25.10
2023-04-10T07:26:12.476Z,25.85
2023-04-10T07:28:38.837Z,22.73
2023-04-10T07:31:06.044Z,26.67
2023-04-10T07:33:32.504Z,26.23
2023-04-10T07:35:58.942Z,26.48
2023-04-10T07:38:25.530Z,27.00
2023-04-10T07:40:57.115Z,26.90
2023-04-10T07:43:23.742Z,26.83
2023-04-10T07:45:50.683Z,78.20
2023-04-10T07:48:17.120Z,188.48
2023-04-10T07:50:43.462Z,37.88
2023-04-10T07:53:09.951Z,28.52
2023-04-10T07:55:40.309Z,27.55
2023-04-10T07:58:06.683Z,23.90
2023-04-10T08:00:34.004Z,25.75
2023-04-10T08:03:01.016Z,25.80
2023-04-10T08:05:28.259Z,25.08
2023-04-10T08:07:55.116Z,23.00
2023-04-10T08:10:21.477Z,24.45
2023-04-10T08:12:47.858Z,24.42
2023-04-10T08:15:14.290Z,24.50
2023-04-10T08:17:40.688Z,24.80
2023-04-10T08:20:07.913Z,24.52
2023-04-10T08:22:34.378Z,24.35
2023-04-10T08:25:00.757Z,22.75
2023-04-10T08:27:28.402Z,24.92
2023-04-10T08:29:54.770Z,24.30
2023-04-10T08:32:21.381Z,23.90
2023-04-10T08:34:49.678Z,25.75
2023-04-10T08:37:16.194Z,25.75
2023-04-10T08:39:42.535Z,23.50
2023-04-10T08:42:08.967Z,26.17
2023-04-10T08:44:37.077Z,26.25
2023-04-10T08:47:04.240Z,45.88
2023-04-10T08:49:40.712Z,37.92
2023-04-10T08:52:16.715Z,28.48
2023-04-10T08:54:50.821Z,25.85
2023-04-10T08:57:20.466Z,27.40
2023-04-10T08:59:48.260Z,25.23
2023-04-10T09:02:14.805Z,27.75
2023-04-10T09:04:48.340Z,25.35
2023-04-10T09:07:15.194Z,24.05
2023-04-10T09:09:41.697Z,24.02
2023-04-10T09:12:08.418Z,23.08
2023-04-10T09:14:35.797Z,23.92
2023-04-10T09:17:22.123Z,23.27
2023-04-10T09:19:52.688Z,22.38
2023-04-10T09:22:29.985Z,20.58
2023-04-10T09:24:56.440Z,21.58
2023-04-10T09:27:31.570Z,23.23
2023-04-10T09:29:58.906Z,21.80
2023-04-10T09:32:46.550Z,20.23
2023-04-10T09:35:16.017Z,18.90
2023-04-10T09:37:45.172Z,19.42
2023-04-10T09:40:25.753Z,19.45
2023-04-10T09:42:52.981Z,19.58
2023-04-10T09:45:20.561Z,17.10
2023-04-10T09:48:07.069Z,23.13
2023-04-10T09:50:40.440Z,16.13
2023-04-10T09:53:21.794Z,19.50
2023-04-10T09:55:49.377Z,17.40
2023-04-10T09:58:16.940Z,18.77
2023-04-10T10:00:49.181Z,19.05
2023-04-10T10:03:18.019Z,17.65
2023-04-10T10:05:46.343Z,13.93
2023-04-10T10:08:14.355Z,15.40
2023-04-10T10:10:54.201Z,14.90
2023-04-10T10:13:47.043Z,17.25
2023-04-10T10:16:20.828Z,19.58
2023-04-10T10:19:24.748Z,18.92
2023-04-10T10:21:53.139Z,17.98
2023-04-10T10:24:22.215Z,17.77
2023-04-10T10:26:50.317Z,17.90
2023-04-10T10:29:18.505Z,18.00
2023-04-10T10:31:47.012Z,15.90
2023-04-10T10:34:16.492Z,17.92
2023-04-10T10:36:43.293Z,16.20
2023-04-10T10:39:20.707Z,17.80
2023-04-10T10:41:57.031Z,14.35
2023-04-10T10:44:48.975Z,17.75
2023-04-10T10:47:23.066Z,15.52
2023-04-10T10:50:00.581Z,13.73
2023-04-10T10:52:38.964Z,13.98
2023-04-10T10:55:35.992Z,14.93
2023-04-10T10:58:09.330Z,14.10
2023-04-10T11:00:51.279Z,14.32
2023-04-10T11:03:27.727Z,13.02
2023-04-10T11:06:08.450Z,12.15
2023-04-10T11:08:49.554Z,12.73
2023-04-10T11:11:17.028Z,12.05
2023-04-10T11:14:06.406Z,12.93
2023-04-10T11:16:34.134Z,17.58
2023-04-10T11:19:12.990Z,23.85
2023-04-10T11:21:59.438Z,12.15
2023-04-10T11:24:26.617Z,14.25
2023-04-10T11:26:53.053Z,10.80
2023-04-10T11:29:22.529Z,13.88
2023-04-10T11:31:59.895Z,13.15
2023-04-10T11:34:27.550Z,14.23
2023-04-10T11:36:54.726Z,15.07
2023-04-10T11:39:21.489Z,14.48
2023-04-10T11:41:52.440Z,15.00
2023-04-10T11:44:27.945Z,14.98
2023-04-10T11:49:23.365Z,16.08
2023-04-10T11:51:51.367Z,15.98
2023-04-10T11:54:20.262Z,15.02
2023-04-10T11:57:11.847Z,15.88
2023-04-10T11:59:38.378Z,16.20
2023-04-10T12:02:11.556Z,15.13
2023-04-10T12:04:38.228Z,13.25
2023-04-10T12:07:04.994Z,13.02
2023-04-10T12:09:31.697Z,15.40
2023-04-10T12:12:00.664Z,13.52
2023-04-10T12:14:35.097Z,14.05
2023-04-10T12:17:02.820Z,14.88
2023-04-10T12:19:30.095Z,16.58
2023-04-10T12:21:58.524Z,17.77
2023-04-10T12:24:43.681Z,14.65
2023-04-10T12:27:25.449Z,14.05
2023-04-10T12:29:53.937Z,13.68
2023-04-10T12:32:21.122Z,14.07
2023-04-10T12:34:58.514Z,12.82
2023-04-10T12:37:45.650Z,14.52
2023-04-10T12:40:12.805Z,14.10
2023-04-10T12:42:42.890Z,13.90
2023-04-10T12:45:13.431Z,12.88
2023-04-10T12:47:53.874Z,12.85
2023-04-10T12:50:24.234Z,9.05
2023-04-10T12:53:06.743Z,9.13
2023-04-10T12:55:33.243Z,9.13
2023-04-10T12:58:17.215Z,9.32
2023-04-10T13:00:44.063Z,8.65
2023-04-10T13:03:10.726Z,10.23
2023-04-10T13:05:37.220Z,9.73
2023-04-10T13:08:03.707Z,9.00
2023-04-10T13:10:30.187Z,9.10
2023-04-10T13:12:56.943Z,8.55
2023-04-10T13:15:24.363Z,8.38
2023-04-10T13:17:50.771Z,10.52
2023-04-10T13:20:17.366Z,11.85
2023-04-10T13:22:43.831Z,10.73
2023-04-10T13:25:10.199Z,10.00
2023-04-10T13:27:36.617Z,9.38
2023-04-10T13:30:03.130Z,8.73
2023-04-10T13:32:29.515Z,9.70
2023-04-10T13:34:57.084Z,11.23
2023-04-10T13:37:23.593Z,9.10
2023-04-10T13:39:50.057Z,9.70
2023-04-10T13:42:16.406Z,8.20
2023-04-10T13:44:42.775Z,7.75
2023-04-10T13:47:09.427Z,8.20
2023-04-10T13:49:35.907Z,8.85
2023-04-10T13:52:02.281Z,8.25
2023-04-10T13:54:28.763Z,7.80
2023-04-10T13:56:56.024Z,9.93
2023-04-10T13:59:22.530Z,9.75
2023-04-10T14:01:50.963Z,14.65
2023-04-10T14:04:17.405Z,6.72
2023-04-10T14:06:43.814Z,7.22
2023-04-10T14:09:10.321Z,6.85
2023-04-10T14:11:36.658Z,7.38
2023-04-10T14:14:03.054Z,7.75
2023-04-10T14:16:29.425Z,8.32
2023-04-10T14:18:56.049Z,7.85
2023-04-10T14:21:22.550Z,8.80
2023-04-10T14:23:49.013Z,6.70
2023-04-10T14:26:15.420Z,5.82
2023-04-10T14:28:42.367Z,5.75
2023-04-10T14:31:08.754Z,6.00
2023-04-10T14:33:35.345Z,6.43
2023-04-10T14:36:02.126Z,6.38
2023-04-10T14:38:28.577Z,6.05
2023-04-10T14:40:55.236Z,7.85
2023-04-10T14:43:21.640Z,5.85
2023-04-10T14:45:48.074Z,7.03
2023-04-10T14:48:14.736Z,5.93
2023-04-10T14:50:41.276Z,6.13
2023-04-10T14:53:09.728Z,6.75
2023-04-10T14:55:37.115Z,7.05
2023-04-10T14:58:04.044Z,7.13
2023-04-10T15:00:30.446Z,7.00
2023-04-10T15:02:57.454Z,8.65
2023-04-10T15:05:25.486Z,24.45
2023-04-10T15:07:51.880Z,8.82
2023-04-10T15:10:18.243Z,14.57
2023-04-10T15:12:44.718Z,9.27
2023-04-10T15:15:11.272Z,6.85
2023-04-10T15:17:37.646Z,7.75
2023-04-10T15:20:05.086Z,8.13
2023-04-10T15:22:31.441Z,8.23
2023-04-10T15:24:57.838Z,7.45
2023-04-10T15:27:24.822Z,8.35
2023-04-10T15:29:51.353Z,7.38
2023-04-10T15:32:17.902Z,7.15
2023-04-10T15:34:44.960Z,7.75
2023-04-10T15:37:11.679Z,8.30
2023-04-10T15:39:38.407Z,9.85
2023-04-10T15:42:05.946Z,7.97
2023-04-10T15:44:32.551Z,7.15
2023-04-10T15:46:58.908Z,7.28
2023-04-10T15:49:36.194Z,7.38
2023-04-10T15:52:04.922Z,9.13
2023-04-10T15:54:33.178Z,8.57
2023-04-10T15:56:59.589Z,7.03
2023-04-10T15:59:26.135Z,7.53
2023-04-10T16:01:52.946Z,7.53
2023-04-10T16:04:19.415Z,7.50
2023-04-10T16:06:45.916Z,9.05
2023-04-10T16:09:25.020Z,67.85
2023-04-10T16:11:52.382Z,49.85
2023-04-10T16:14:19.125Z,8.18
2023-04-10T16:16:45.902Z,8.23
2023-04-10T16:19:12.322Z,7.45
2023-04-10T16:21:38.760Z,8.05
2023-04-10T16:24:05.543Z,7.75
2023-04-10T16:26:32.087Z,8.25
2023-04-10T16:28:58.553Z,8.48
2023-04-10T16:31:25.184Z,8.85
2023-04-10T16:33:51.662Z,8.48
2023-04-10T16:36:18.057Z,10.13
2023-04-10T16:38:45.118Z,7.53
2023-04-10T16:41:12.445Z,7.82
2023-04-10T16:43:38.994Z,8.35
2023-04-10T16:46:05.871Z,7.90
2023-04-10T16:48:33.694Z,8.05
2023-04-10T16:51:06.126Z,7.47
2023-04-10T16:53:35.675Z,8.70
2023-04-10T16:56:04.455Z,7.68
2023-04-10T16:58:33.964Z,7.75
2023-04-10T17:01:00.770Z,8.18
2023-04-10T17:03:27.419Z,7.97
2023-04-10T17:05:54.126Z,7.63
2023-04-10T17:08:20.570Z,8.02
2023-04-10T17:10:47.094Z,7.68
2023-04-10T17:13:13.603Z,8.02
2023-04-10T17:15:40.316Z,7.55
2023-04-10T17:18:06.702Z,25.35
2023-04-10T17:20:36.164Z,8.05
2023-04-10T17:23:02.830Z,8.00
2023-04-10T17:25:29.277Z,7.57
2023-04-10T17:27:57.101Z,8.23
2023-04-10T17:30:23.541Z,8.30
2023-04-10T17:32:50.027Z,7.93
2023-04-10T17:35:16.691Z,8.93
2023-04-10T17:37:43.587Z,9.52
2023-04-10T17:40:11.042Z,10.73
2023-04-10T17:42:37.434Z,8.52
2023-04-10T17:45:04.433Z,9.20
2023-04-10T17:47:30.838Z,9.10
2023-04-10T17:49:57.330Z,7.95
2023-04-10T17:52:23.911Z,8.55
2023-04-10T17:54:50.277Z,9.13
2023-04-10T17:57:16.803Z,9.95
2023-04-10T17:59:43.634Z,8.25
2023-04-10T18:02:10.111Z,9.00
2023-04-10T18:04:36.589Z,8.68
2023-04-10T18:07:02.942Z,18.13
2023-04-10T18:09:29.323Z,12.70
2023-04-10T18:11:55.865Z,9.40
2023-04-10T18:14:22.254Z,8.18
2023-04-10T18:16:49.217Z,9.52
2023-04-10T18:19:15.736Z,8.90
2023-04-10T18:21:42.129Z,8.25
2023-04-10T18:24:12.230Z,8.05
2023-04-10T18:26:38.645Z,8.93
2023-04-10T18:29:05.330Z,8.20
2023-04-10T18:31:31.983Z,9.73
2023-04-10T18:34:07.000Z,9.30
2023-04-10T18:36:34.457Z,8.75
2023-04-10T18:39:00.813Z,8.65
2023-04-10T18:41:27.173Z,9.13
2023-04-10T18:44:01.839Z,9.27
2023-04-10T18:46:32.630Z,9.02
2023-04-10T18:49:01.065Z,8.07
2023-04-10T18:51:28.039Z,8.20
2023-04-10T18:53:54.712Z,9.60
2023-04-10T18:56:21.283Z,9.63
2023-04-10T18:58:49.982Z,9.10
2023-04-10T19:01:17.819Z,8.60
2023-04-10T19:03:49.330Z,19.08
2023-04-10T19:06:17.742Z,15.57
2023-04-10T19:08:44.480Z,13.57
2023-04-10T19:11:11.314Z,15.05
2023-04-10T19:13:37.699Z,11.82
2023-04-10T19:16:04.521Z,13.40
2023-04-10T19:18:31.365Z,11.18
2023-04-10T19:20:59.326Z,12.45
2023-04-10T19:23:26.194Z,13.40
2023-04-10T19:25:53.963Z,12.43
2023-04-10T19:28:20.499Z,11.25
2023-04-10T19:30:46.946Z,10.93
2023-04-10T19:33:13.460Z,12.68
2023-04-10T19:35:39.949Z,11.13
2023-04-10T19:38:06.439Z,12.70
2023-04-10T19:40:32.877Z,11.07
2023-04-10T19:43:00.329Z,13.13
2023-04-10T19:45:28.963Z,12.15
2023-04-10T19:47:56.412Z,12.57
2023-04-10T19:50:22.968Z,11.18
2023-04-10T19:52:49.353Z,13.90
2023-04-10T19:55:18.186Z,11.50
2023-04-10T19:57:45.331Z,13.82
2023-04-10T20:00:12.624Z,14.30
2023-04-10T20:02:39.924Z,13.27
2023-04-10T20:05:07.242Z,12.95
2023-04-10T20:07:33.696Z,13.65
2023-04-10T20:10:02.604Z,15.50
2023-04-10T20:12:36.299Z,15.07
2023-04-10T20:15:03.922Z,14.65
2023-04-10T20:17:30.600Z,14.02
2023-04-10T20:19:57.306Z,16.17
2023-04-10T20:22:23.817Z,15.80
2023-04-10T20:24:50.362Z,20.08
2023-04-10T20:27:16.830Z,25.27
2023-04-10T20:29:43.219Z,15.13
2023-04-10T20:32:10.015Z,14.07
2023-04-10T20:34:36.902Z,15.35
2023-04-10T20:37:03.431Z,16.13
2023-04-10T20:39:29.973Z,15.63
2023-04-10T20:41:57.254Z,14.05
2023-04-10T20:44:23.814Z,13.15
2023-04-10T20:46:50.794Z,15.00
2023-04-10T20:49:17.632Z,13.73
2023-04-10T20:51:44.270Z,14.27
2023-04-10T20:54:11.586Z,18.55
2023-04-10T20:56:43.293Z,17.38
2023-04-10T20:59:10.012Z,20.33
2023-04-10T21:01:36.522Z,15.18
2023-04-10T21:04:03.170Z,15.25
2023-04-10T21:06:29.738Z,16.60
2023-04-10T21:08:56.298Z,17.02
2023-04-10T21:11:22.756Z,16.27
2023-04-10T21:13:49.217Z,15.73
2023-04-10T21:16:15.714Z,20.42
2023-04-10T21:18:42.448Z,13.90
2023-04-10T21:21:08.963Z,14.18
2023-04-10T21:23:35.392Z,14.40
2023-04-10T21:26:01.951Z,15.88
2023-04-10T21:28:28.367Z,14.45
2023-04-10T21:30:54.741Z,13.23
2023-04-10T21:33:21.191Z,14.05
2023-04-10T21:35:47.645Z,13.00
2023-04-10T21:38:14.421Z,13.00
2023-04-10T21:40:40.914Z,14.55
2023-04-10T21:43:07.392Z,16.95
2023-04-10T21:45:37.474Z,14.20
2023-04-10T21:48:03.927Z,12.13
2023-04-10T21:50:30.423Z,12.50
2023-04-10T21:52:56.846Z,13.68
2023-04-10T21:55:23.237Z,13.18
2023-04-10T21:57:49.735Z,12.68
2023-04-10T22:00:17.055Z,13.57
2023-04-10T22:02:44.531Z,12.95
2023-04-10T22:05:13.195Z,13.18
2023-04-10T22:07:40.240Z,12.23
2023-04-10T22:10:07.461Z,13.18
2023-04-10T22:12:33.952Z,10.75
2023-04-10T22:15:00.409Z,13.13
2023-04-10T22:17:27.049Z,13.05
2023-04-10T22:19:53.570Z,11.98
2023-04-10T22:22:21.087Z,12.75
2023-04-10T22:24:47.682Z,12.10
2023-04-10T22:27:14.096Z,11.95
2023-04-10T22:29:41.982Z,13.02
2023-04-10T22:32:09.893Z,12.25
2023-04-10T22:34:37.285Z,13.45
2023-04-10T22:37:03.633Z,11.65
2023-04-10T22:39:30.099Z,12.23
2023-04-10T22:41:56.595Z,12.40
2023-04-10T22:44:23.265Z,12.05
2023-04-10T22:46:49.714Z,11.68
2023-04-10T22:49:17.155Z,11.50
2023-04-10T22:51:47.379Z,12.27
2023-04-10T22:54:14.007Z,11.38
2023-04-10T22:56:40.666Z,11.52
2023-04-10T22:59:06.997Z,11.35
2023-04-10T23:01:33.412Z,12.23
2023-04-10T23:03:59.802Z,11.02
2023-04-10T23:06:27.108Z,11.18
2023-04-10T23:08:53.605Z,10.45
2023-04-10T23:11:20.110Z,13.13
2023-04-10T23:13:46.492Z,9.95
2023-04-10T23:16:12.941Z,10.68
2023-04-10T23:18:39.334Z,10.25
2023-04-10T23:21:07.015Z,9.52
2023-04-10T23:23:33.597Z,11.10
2023-04-10T23:26:00.785Z,9.82
2023-04-10T23:28:27.657Z,10.45
2023-04-10T23:30:54.050Z,12.18
2023-04-10T23:33:20.550Z,11.15
2023-04-10T23:35:46.932Z,10.00
2023-04-10T23:38:13.612Z,9.80
2023-04-10T23:40:39.963Z,10.23
2023-04-10T23:43:06.369Z,10.73
2023-04-10T23:45:33.042Z,9.75
2023-04-10T23:47:59.747Z,10.02
2023-04-10T23:50:26.117Z,9.98
2023-04-10T23:52:52.508Z,10.25
2023-04-10T23:55:19.061Z,10.18
2023-04-10T23:57:45.518Z,10.07
